createdAt,value
2019-04-03T00:00:39.688Z,1.98
2019-04-03T00:01:42.642Z,1.90
2019-04-03T00:02:45.196Z,1.87
2019-04-03T00:03:47.860Z,1.82
2019-04-03T00:04:50.420Z,2.08
2019-04-03T00:05:53.893Z,1.90
2019-04-03T00:06:56.935Z,1.80
2019-04-03T00:08:00.849Z,1.60
2019-04-03T00:09:06.509Z,1.45
2019-04-03T00:10:11.080Z,1.52
2019-04-03T00:11:14.748Z,1.70
2019-04-03T00:12:18.022Z,1.85
2019-04-03T00:13:21.450Z,1.70
2019-04-03T00:14:24.991Z,1.60
2019-04-03T00:15:30.145Z,1.85
2019-04-03T00:16:33.193Z,2.00
2019-04-03T00:17:38.891Z,1.80
2019-04-03T00:18:41.890Z,1.67
2019-04-03T00:19:45.836Z,1.92
2019-04-03T00:20:50.989Z,1.82
2019-04-03T00:21:54.137Z,1.77
2019-04-03T00:22:57.205Z,1.82
2019-04-03T00:24:00.860Z,1.92
2019-04-03T00:25:04.733Z,1.95
2019-04-03T00:26:07.588Z,1.47
2019-04-03T00:27:11.253Z,1.40
2019-04-03T00:28:14.217Z,1.70
2019-04-03T00:29:20.712Z,1.87
2019-04-03T00:30:26.642Z,1.70
2019-04-03T00:31:29.578Z,1.60
2019-04-03T00:32:33.853Z,1.42
2019-04-03T00:33:38.156Z,1.85
2019-04-03T00:34:43.151Z,1.98
2019-04-03T00:35:46.468Z,1.92
2019-04-03T00:36:49.714Z,1.80
2019-04-03T00:37:53.579Z,1.85
2019-04-03T00:38:56.877Z,1.90
2019-04-03T00:39:59.588Z,1.57
2019-04-03T00:41:02.460Z,1.87
2019-04-03T00:42:05.056Z,1.60
2019-04-03T00:43:07.645Z,1.87
2019-04-03T00:44:10.161Z,2.02
2019-04-03T00:45:12.866Z,1.70
2019-04-03T00:46:15.509Z,1.80
2019-04-03T00:47:18.107Z,1.77
2019-04-03T00:48:20.813Z,1.90
2019-04-03T00:49:24.410Z,2.12
2019-04-03T00:50:28.729Z,2.15
2019-04-03T00:51:31.582Z,1.87
2019-04-03T00:52:34.278Z,2.25
2019-04-03T00:53:36.935Z,2.02
2019-04-03T00:54:39.442Z,2.02
2019-04-03T00:55:41.995Z,1.98
2019-04-03T00:56:44.630Z,2.30
2019-04-03T00:57:47.459Z,2.50
2019-04-03T00:58:50.093Z,2.20
2019-04-03T00:59:52.587Z,2.08
2019-04-03T01:00:56.326Z,1.60
2019-04-03T01:01:59.597Z,2.60
2019-04-03T01:03:03.929Z,2.20
2019-04-03T01:04:06.602Z,2.05
2019-04-03T01:05:09.487Z,2.40
2019-04-03T01:06:12.093Z,2.10
2019-04-03T01:07:15.084Z,2.30
2019-04-03T01:08:17.751Z,2.22
2019-04-03T01:09:20.326Z,2.90
2019-04-03T01:10:22.859Z,2.30
2019-04-03T01:11:25.703Z,2.00
2019-04-03T01:12:30.363Z,2.00
2019-04-03T01:13:32.838Z,2.40
2019-04-03T01:14:35.456Z,2.15
2019-04-03T01:15:37.988Z,2.15
2019-04-03T01:16:40.508Z,2.55
2019-04-03T01:17:43.280Z,2.25
2019-04-03T01:18:45.914Z,2.22
2019-04-03T01:19:48.534Z,2.30
2019-04-03T01:20:51.185Z,2.75
2019-04-03T01:21:55.548Z,2.50
2019-04-03T01:22:58.231Z,2.40
2019-04-03T01:24:00.858Z,1.87
2019-04-03T01:25:04.129Z,2.62
2019-04-03T01:26:09.257Z,2.37
2019-04-03T01:27:11.946Z,2.62
2019-04-03T01:28:16.037Z,2.62
2019-04-03T01:29:18.646Z,2.45
2019-04-03T01:30:21.183Z,2.17
2019-04-03T01:31:24.017Z,2.08
2019-04-03T01:32:26.551Z,1.85
2019-04-03T01:33:29.397Z,2.12
2019-04-03T01:34:31.933Z,1.85
2019-04-03T01:35:34.883Z,2.42
2019-04-03T01:36:38.127Z,2.27
2019-04-03T01:37:41.139Z,1.70
2019-04-03T01:38:45.805Z,2.40
2019-04-03T01:39:50.349Z,2.67
2019-04-03T01:40:53.151Z,2.60
2019-04-03T01:41:55.931Z,2.22
2019-04-03T01:42:58.474Z,3.00
2019-04-03T01:44:01.202Z,2.30
2019-04-03T01:45:04.231Z,3.00
2019-04-03T01:46:07.070Z,2.17
2019-04-03T01:47:09.871Z,2.27
2019-04-03T01:48:13.545Z,2.40
2019-04-03T01:49:16.126Z,2.50
2019-04-03T01:50:18.916Z,2.60
2019-04-03T01:51:21.935Z,2.30
2019-04-03T01:52:24.732Z,2.47
2019-04-03T01:53:27.370Z,2.55
2019-04-03T01:54:29.932Z,2.00
2019-04-03T01:55:34.133Z,2.45
2019-04-03T01:56:36.930Z,2.58
2019-04-03T01:57:39.573Z,2.47
2019-04-03T01:58:42.218Z,2.47
2019-04-03T01:59:44.846Z,1.82
2019-04-03T02:00:49.221Z,2.50
2019-04-03T02:01:52.085Z,1.80
2019-04-03T02:02:54.802Z,2.40
2019-04-03T02:03:57.376Z,3.17
2019-04-03T02:05:00.071Z,2.60
2019-04-03T02:06:02.848Z,2.40
2019-04-03T02:07:05.769Z,2.95
2019-04-03T02:08:08.780Z,2.30
2019-04-03T02:09:11.377Z,1.95
2019-04-03T02:10:17.699Z,2.30
2019-04-03T02:11:20.837Z,2.33
2019-04-03T02:12:23.410Z,2.60
2019-04-03T02:13:25.989Z,2.33
2019-04-03T02:14:28.796Z,2.35
2019-04-03T02:15:31.798Z,2.45
2019-04-03T02:16:34.396Z,2.30
2019-04-03T02:17:37.032Z,2.30
2019-04-03T02:18:39.566Z,2.12
2019-04-03T02:19:42.664Z,2.65
2019-04-03T02:20:45.197Z,2.33
2019-04-03T02:21:47.730Z,2.02
2019-04-03T02:22:50.467Z,2.10
2019-04-03T02:23:53.009Z,2.50
2019-04-03T02:24:55.776Z,2.45
2019-04-03T02:25:58.318Z,2.47
2019-04-03T02:27:02.705Z,2.22
2019-04-03T02:28:05.541Z,2.67
2019-04-03T02:29:08.712Z,2.00
2019-04-03T02:30:13.516Z,2.70
2019-04-03T02:31:19.213Z,2.62
2019-04-03T02:32:23.804Z,2.42
2019-04-03T02:33:28.617Z,3.00
2019-04-03T02:34:33.439Z,2.52
2019-04-03T02:35:39.204Z,2.30
2019-04-03T02:36:43.336Z,2.25
2019-04-03T02:37:48.697Z,2.20
2019-04-03T02:38:48.916Z,2.00
2019-04-03T02:39:51.523Z,2.70
2019-04-03T02:40:54.250Z,2.37
2019-04-03T02:41:57.018Z,2.92
2019-04-03T02:42:59.610Z,2.45
2019-04-03T02:44:02.375Z,2.55
2019-04-03T02:45:06.344Z,2.47
2019-04-03T02:46:09.274Z,2.27
2019-04-03T02:47:11.905Z,2.52
2019-04-03T02:48:14.644Z,2.70
2019-04-03T02:49:17.734Z,2.25
2019-04-03T02:50:24.509Z,2.17
2019-04-03T02:51:27.184Z,2.20
2019-04-03T02:52:30.009Z,2.72
2019-04-03T02:53:32.648Z,2.25
2019-04-03T02:54:39.423Z,2.20
2019-04-03T02:55:41.983Z,2.42
2019-04-03T02:56:45.468Z,2.27
2019-04-03T02:57:49.789Z,2.45
2019-04-03T02:58:54.047Z,2.50
2019-04-03T03:00:00.355Z,2.60
2019-04-03T03:01:06.676Z,2.30
2019-04-03T03:02:11.277Z,2.62
2019-04-03T03:03:16.122Z,2.70
2019-04-03T03:04:20.727Z,2.33
2019-04-03T03:05:26.822Z,2.62
2019-04-03T03:06:31.420Z,2.15
2019-04-03T03:07:35.784Z,2.72
2019-04-03T03:08:40.523Z,1.90
2019-04-03T03:09:45.952Z,2.33
2019-04-03T03:10:46.937Z,2.00
2019-04-03T03:11:50.379Z,2.12
2019-04-03T03:12:54.192Z,2.30
2019-04-03T03:13:59.140Z,2.10
2019-04-03T03:15:04.735Z,2.70
2019-04-03T03:16:08.544Z,2.22
2019-04-03T03:17:11.357Z,2.70
2019-04-03T03:18:14.016Z,2.55
2019-04-03T03:19:17.370Z,2.45
2019-04-03T03:20:22.816Z,2.60
2019-04-03T03:21:26.699Z,2.92
2019-04-03T03:22:29.781Z,2.40
2019-04-03T03:23:33.139Z,2.90
2019-04-03T03:24:36.053Z,2.85
2019-04-03T03:25:39.101Z,2.50
2019-04-03T03:26:41.932Z,2.50
2019-04-03T03:27:46.191Z,2.85
2019-04-03T03:28:49.342Z,2.58
2019-04-03T03:29:52.377Z,2.77
2019-04-03T03:31:02.405Z,2.58
2019-04-03T03:32:10.931Z,2.80
2019-04-03T03:33:29.920Z,2.37
2019-04-03T03:34:11.133Z,3.00
2019-04-03T03:35:18.236Z,2.75
2019-04-03T03:36:21.711Z,2.80
2019-04-03T03:37:23.035Z,2.77
2019-04-03T03:38:27.788Z,3.02
2019-04-03T03:39:32.297Z,2.42
2019-04-03T03:40:35.240Z,2.67
2019-04-03T03:41:38.597Z,2.70
2019-04-03T03:42:41.397Z,2.52
2019-04-03T03:43:45.330Z,2.20
2019-04-03T03:44:48.761Z,2.25
2019-04-03T03:45:53.605Z,2.50
2019-04-03T03:47:01.075Z,2.12
2019-04-03T03:48:03.382Z,2.92
2019-04-03T03:49:06.263Z,2.92
2019-04-03T03:50:10.089Z,2.65
2019-04-03T03:51:14.349Z,2.37
2019-04-03T03:52:17.524Z,2.72
2019-04-03T03:53:21.162Z,2.58
2019-04-03T03:54:25.419Z,2.92
2019-04-03T03:55:29.729Z,2.72
2019-04-03T03:56:33.023Z,3.00
2019-04-03T03:57:40.222Z,2.62
2019-04-03T03:58:45.723Z,2.55
2019-04-03T03:59:51.948Z,2.75
2019-04-03T04:00:57.961Z,3.05
2019-04-03T04:02:03.390Z,2.58
2019-04-03T04:03:04.282Z,2.90
2019-04-03T04:04:07.844Z,2.83
2019-04-03T04:05:12.165Z,2.58
2019-04-03T04:06:15.268Z,2.87
2019-04-03T04:07:18.093Z,2.50
2019-04-03T04:08:20.901Z,2.80
2019-04-03T04:09:24.614Z,3.10
2019-04-03T04:10:28.887Z,2.62
2019-04-03T04:11:32.419Z,2.72
2019-04-03T04:12:39.767Z,2.85
2019-04-03T04:13:40.040Z,2.90
2019-04-03T04:14:43.275Z,3.10
2019-04-03T04:15:46.637Z,3.20
2019-04-03T04:16:49.383Z,2.50
2019-04-03T04:17:52.393Z,2.70
2019-04-03T04:18:57.534Z,2.80
2019-04-03T04:20:02.910Z,2.87
2019-04-03T04:21:04.997Z,2.62
2019-04-03T04:22:07.645Z,2.80
2019-04-03T04:23:10.734Z,2.42
2019-04-03T04:24:13.253Z,2.70
2019-04-03T04:25:15.999Z,2.42
2019-04-03T04:26:19.056Z,2.85
2019-04-03T04:27:22.298Z,2.65
2019-04-03T04:28:25.137Z,2.52
2019-04-03T04:29:27.971Z,2.75
2019-04-03T04:30:31.444Z,2.83
2019-04-03T04:31:34.129Z,2.50
2019-04-03T04:32:36.763Z,3.00
2019-04-03T04:33:39.611Z,2.65
2019-04-03T04:34:42.315Z,2.77
2019-04-03T04:35:45.390Z,2.70
2019-04-03T04:36:47.938Z,2.40
2019-04-03T04:37:50.797Z,3.08
2019-04-03T04:38:53.484Z,2.55
2019-04-03T04:39:55.980Z,2.45
2019-04-03T04:41:01.285Z,2.87
2019-04-03T04:42:04.350Z,2.72
2019-04-03T04:43:08.370Z,2.62
2019-04-03T04:44:14.160Z,2.58
2019-04-03T04:45:15.934Z,2.90
2019-04-03T04:46:18.567Z,2.45
2019-04-03T04:47:21.295Z,2.60
2019-04-03T04:48:24.466Z,3.17
2019-04-03T04:49:27.175Z,3.83
2019-04-03T04:50:30.945Z,3.00
2019-04-03T04:51:33.736Z,2.67
2019-04-03T04:52:36.755Z,2.65
2019-04-03T04:53:39.577Z,3.45
2019-04-03T04:54:43.277Z,3.22
2019-04-03T04:55:46.042Z,3.30
2019-04-03T04:56:48.772Z,2.45
2019-04-03T04:57:51.441Z,2.90
2019-04-03T04:58:54.085Z,2.58
2019-04-03T04:59:56.794Z,3.33
2019-04-03T05:00:59.550Z,2.90
2019-04-03T05:02:03.854Z,3.20
2019-04-03T05:03:06.488Z,3.20
2019-04-03T05:04:10.832Z,3.87
2019-04-03T05:05:13.547Z,3.15
2019-04-03T05:06:16.225Z,3.37
2019-04-03T05:07:18.963Z,2.95
2019-04-03T05:08:21.674Z,3.02
2019-04-03T05:09:24.478Z,3.30
2019-04-03T05:10:27.185Z,3.15
2019-04-03T05:11:29.822Z,2.80
2019-04-03T05:12:33.786Z,2.95
2019-04-03T05:13:36.807Z,2.98
2019-04-03T05:14:39.484Z,3.85
2019-04-03T05:15:42.244Z,3.35
2019-04-03T05:16:44.772Z,3.33
2019-04-03T05:17:50.334Z,2.55
2019-04-03T05:18:51.986Z,2.62
2019-04-03T05:19:54.929Z,3.02
2019-04-03T05:20:57.856Z,3.10
2019-04-03T05:22:00.705Z,2.90
2019-04-03T05:23:03.419Z,3.15
2019-04-03T05:24:12.620Z,3.22
2019-04-03T05:25:11.758Z,3.70
2019-04-03T05:26:14.400Z,3.40
2019-04-03T05:27:17.019Z,3.15
2019-04-03T05:28:19.558Z,3.25
2019-04-03T05:29:22.678Z,3.58
2019-04-03T05:30:29.991Z,3.60
2019-04-03T05:31:32.886Z,3.50
2019-04-03T05:32:35.646Z,3.77
2019-04-03T05:33:41.155Z,3.85
2019-04-03T05:34:43.997Z,3.50
2019-04-03T05:35:47.726Z,3.10
2019-04-03T05:36:50.515Z,3.17
2019-04-03T05:37:53.342Z,3.33
2019-04-03T05:38:56.239Z,3.70
2019-04-03T05:39:59.153Z,3.52
2019-04-03T05:41:02.058Z,3.40
2019-04-03T05:42:04.771Z,2.85
2019-04-03T05:43:07.389Z,3.67
2019-04-03T05:44:10.061Z,3.65
2019-04-03T05:45:12.876Z,2.98
2019-04-03T05:46:15.524Z,2.77
2019-04-03T05:47:18.431Z,3.55
2019-04-03T05:48:21.219Z,3.17
2019-04-03T05:49:23.926Z,3.37
2019-04-03T05:50:27.178Z,2.92
2019-04-03T05:51:30.400Z,4.08
2019-04-03T05:52:34.994Z,3.35
2019-04-03T05:53:38.072Z,3.55
2019-04-03T05:54:40.839Z,3.65
2019-04-03T05:55:43.869Z,4.75
2019-04-03T05:56:46.581Z,3.33
2019-04-03T05:57:49.164Z,3.75
2019-04-03T05:58:55.999Z,3.87
2019-04-03T06:00:01.056Z,3.20
2019-04-03T06:01:05.964Z,4.15
2019-04-03T06:02:14.631Z,4.17
2019-04-03T06:03:10.275Z,4.12
2019-04-03T06:04:12.821Z,4.28
2019-04-03T06:05:18.459Z,4.10
2019-04-03T06:06:20.430Z,3.87
2019-04-03T06:07:23.255Z,4.83
2019-04-03T06:08:27.381Z,3.85
2019-04-03T06:09:30.102Z,4.55
2019-04-03T06:10:34.165Z,4.75
2019-04-03T06:11:39.846Z,5.30
2019-04-03T06:12:44.779Z,11.30
2019-04-03T06:13:48.257Z,12.20
2019-04-03T06:14:52.149Z,8.50
2019-04-03T06:15:54.895Z,14.95
2019-04-03T06:16:57.768Z,12.65
2019-04-03T06:18:00.432Z,9.38
2019-04-03T06:19:06.121Z,10.82
2019-04-03T06:20:10.151Z,10.50
2019-04-03T06:21:14.498Z,8.88
2019-04-03T06:22:21.213Z,7.05
2019-04-03T06:23:22.891Z,5.75
2019-04-03T06:24:25.705Z,5.87
2019-04-03T06:25:30.119Z,5.75
2019-04-03T06:26:33.122Z,5.78
2019-04-03T06:27:35.930Z,5.33
2019-04-03T06:28:38.509Z,5.50
2019-04-03T06:29:41.060Z,5.22
2019-04-03T06:30:45.368Z,5.00
2019-04-03T06:31:47.902Z,4.37
2019-04-03T06:32:50.462Z,5.25
2019-04-03T06:33:53.280Z,5.25
2019-04-03T06:34:56.260Z,5.78
2019-04-03T06:35:59.183Z,5.12
2019-04-03T06:37:01.698Z,4.85
2019-04-03T06:38:04.501Z,4.75
2019-04-03T06:39:07.745Z,4.47
2019-04-03T06:40:10.970Z,5.00
2019-04-03T06:41:13.754Z,5.72
2019-04-03T06:42:16.739Z,5.22
2019-04-03T06:43:21.124Z,5.92
2019-04-03T06:44:23.947Z,4.85
2019-04-03T06:45:27.168Z,4.95
2019-04-03T06:46:30.055Z,5.15
2019-04-03T06:47:33.281Z,4.20
2019-04-03T06:48:36.581Z,3.90
2019-04-03T06:49:42.063Z,4.60
2019-04-03T06:50:46.542Z,3.98
2019-04-03T06:51:50.393Z,3.90
2019-04-03T06:52:53.674Z,4.55
2019-04-03T06:53:59.006Z,4.33
2019-04-03T06:55:03.150Z,3.60
2019-04-03T06:56:07.890Z,3.90
2019-04-03T06:57:10.254Z,3.52
2019-04-03T06:58:12.961Z,4.15
2019-04-03T06:59:17.135Z,3.75
2019-04-03T07:00:22.018Z,4.75
2019-04-03T07:01:24.616Z,3.70
2019-04-03T07:02:31.118Z,3.98
2019-04-03T07:03:34.391Z,4.53
2019-04-03T07:04:38.342Z,4.67
2019-04-03T07:05:42.128Z,4.10
2019-04-03T07:06:45.632Z,4.10
2019-04-03T07:07:48.537Z,4.00
2019-04-03T07:08:51.269Z,3.62
2019-04-03T07:09:54.049Z,3.85
2019-04-03T07:10:57.823Z,4.30
2019-04-03T07:12:00.556Z,3.92
2019-04-03T07:13:04.890Z,4.42
2019-04-03T07:14:07.490Z,3.27
2019-04-03T07:15:10.058Z,3.62
2019-04-03T07:16:12.766Z,3.80
2019-04-03T07:17:15.543Z,3.87
2019-04-03T07:18:18.231Z,3.87
2019-04-03T07:19:20.948Z,4.03
2019-04-03T07:20:25.493Z,3.90
2019-04-03T07:21:28.120Z,3.30
2019-04-03T07:22:31.113Z,3.90
2019-04-03T07:23:33.887Z,3.65
2019-04-03T07:24:36.429Z,3.92
2019-04-03T07:25:38.995Z,3.72
2019-04-03T07:26:41.785Z,3.90
2019-04-03T07:27:44.329Z,4.40
2019-04-03T07:28:47.243Z,4.10
2019-04-03T07:29:50.346Z,4.28
2019-04-03T07:30:53.952Z,3.77
2019-04-03T07:31:57.000Z,4.30
2019-04-03T07:32:59.691Z,4.22
2019-04-03T07:34:03.522Z,4.00
2019-04-03T07:35:10.103Z,3.55
2019-04-03T07:36:11.752Z,4.53
2019-04-03T07:37:15.450Z,3.72
2019-04-03T07:38:20.057Z,3.83
2019-04-03T07:39:23.702Z,3.42
2019-04-03T07:40:26.584Z,3.58
2019-04-03T07:41:29.292Z,3.98
2019-04-03T07:42:32.118Z,4.22
2019-04-03T07:43:34.772Z,3.90
2019-04-03T07:44:37.477Z,3.77
2019-04-03T07:45:40.079Z,3.33
2019-04-03T07:46:42.618Z,3.77
2019-04-03T07:47:47.772Z,3.40
2019-04-03T07:48:50.779Z,3.35
2019-04-03T07:49:53.414Z,3.50
2019-04-03T07:50:56.206Z,2.98
2019-04-03T07:51:58.789Z,3.12
2019-04-03T07:53:02.460Z,3.10
2019-04-03T07:54:05.205Z,3.27
2019-04-03T07:55:08.370Z,2.98
2019-04-03T07:56:11.029Z,3.08
2019-04-03T07:57:16.434Z,3.55
2019-04-03T07:58:19.383Z,3.40
2019-04-03T07:59:21.930Z,3.65
2019-04-03T08:00:24.883Z,3.55
2019-04-03T08:01:28.643Z,3.52
2019-04-03T08:02:33.558Z,3.17
2019-04-03T08:03:37.051Z,2.60
2019-04-03T08:04:39.970Z,2.92
2019-04-03T08:05:43.204Z,3.75
2019-04-03T08:06:45.912Z,3.72
2019-04-03T08:07:48.636Z,3.33
2019-04-03T08:09:05.840Z,2.62
2019-04-03T08:09:58.099Z,2.98
2019-04-03T08:11:01.877Z,3.33
2019-04-03T08:12:05.300Z,3.30
2019-04-03T08:13:07.848Z,3.17
2019-04-03T08:14:10.422Z,3.15
2019-04-03T08:15:13.992Z,3.37
2019-04-03T08:16:17.413Z,3.10
2019-04-03T08:17:20.661Z,2.95
2019-04-03T08:18:23.322Z,2.58
2019-04-03T08:19:25.960Z,2.80
2019-04-03T08:20:30.629Z,3.00
2019-04-03T08:21:33.457Z,2.95
2019-04-03T08:22:36.042Z,2.70
2019-04-03T08:23:40.003Z,3.30
2019-04-03T08:24:42.547Z,3.30
2019-04-03T08:25:48.110Z,3.08
2019-04-03T08:26:51.969Z,2.75
2019-04-03T08:27:55.624Z,3.12
2019-04-03T08:29:01.019Z,3.45
2019-04-03T08:30:07.553Z,3.05
2019-04-03T08:31:11.094Z,2.83
2019-04-03T08:32:15.374Z,3.30
2019-04-03T08:33:19.778Z,3.17
2019-04-03T08:34:24.077Z,3.22
2019-04-03T08:35:26.764Z,3.45
2019-04-03T08:36:29.564Z,3.10
2019-04-03T08:37:32.834Z,3.47
2019-04-03T08:38:36.324Z,3.00
2019-04-03T08:39:39.139Z,3.35
2019-04-03T08:40:42.528Z,3.12
2019-04-03T08:41:45.469Z,2.72
2019-04-03T08:42:48.164Z,3.08
2019-04-03T08:43:50.915Z,3.37
2019-04-03T08:44:53.495Z,3.02
2019-04-03T08:45:56.431Z,3.00
2019-04-03T08:46:59.274Z,2.95
2019-04-03T08:48:01.788Z,3.20
2019-04-03T08:49:04.333Z,2.83
2019-04-03T08:50:07.900Z,2.62
2019-04-03T08:51:10.413Z,2.83
2019-04-03T08:52:14.813Z,3.12
2019-04-03T08:53:19.637Z,2.52
2019-04-03T08:54:22.678Z,2.55
2019-04-03T08:55:26.972Z,2.25
2019-04-03T08:56:29.695Z,3.25
2019-04-03T08:57:32.492Z,2.70
2019-04-03T08:58:35.096Z,2.92
2019-04-03T08:59:38.006Z,3.05
2019-04-03T09:00:40.784Z,3.08
2019-04-03T09:01:43.720Z,2.77
2019-04-03T09:02:46.518Z,3.50
2019-04-03T09:03:49.792Z,3.95
2019-04-03T09:04:52.421Z,3.22
2019-04-03T09:05:55.857Z,2.87
2019-04-03T09:06:58.635Z,3.12
2019-04-03T09:08:01.367Z,2.98
2019-04-03T09:09:07.347Z,3.40
2019-04-03T09:10:12.173Z,2.75
2019-04-03T09:11:15.298Z,3.35
2019-04-03T09:12:18.184Z,2.60
2019-04-03T09:13:23.394Z,3.37
2019-04-03T09:14:26.178Z,3.10
2019-04-03T09:15:29.188Z,3.02
2019-04-03T09:16:32.226Z,3.02
2019-04-03T09:17:35.446Z,2.95
2019-04-03T09:18:38.707Z,2.98
2019-04-03T09:19:42.299Z,2.95
2019-04-03T09:20:45.546Z,2.80
2019-04-03T09:21:50.998Z,3.20
2019-04-03T09:22:54.109Z,2.75
2019-04-03T09:23:58.393Z,2.87
2019-04-03T09:25:01.232Z,3.10
2019-04-03T09:26:03.896Z,2.80
2019-04-03T09:27:08.794Z,2.62
2019-04-03T09:28:11.867Z,2.70
2019-04-03T09:29:14.720Z,2.22
2019-04-03T09:30:17.713Z,2.77
2019-04-03T09:31:20.797Z,2.92
2019-04-03T09:32:23.607Z,2.80
2019-04-03T09:33:29.122Z,3.25
2019-04-03T09:34:33.689Z,3.08
2019-04-03T09:35:35.567Z,3.00
2019-04-03T09:36:38.690Z,3.00
2019-04-03T09:37:41.614Z,2.42
2019-04-03T09:38:44.162Z,2.70
2019-04-03T09:39:46.792Z,2.85
2019-04-03T09:40:49.625Z,2.80
2019-04-03T09:41:52.361Z,2.40
2019-04-03T09:42:55.199Z,2.52
2019-04-03T09:43:57.740Z,2.47
2019-04-03T09:45:00.654Z,2.37
2019-04-03T09:46:03.768Z,2.90
2019-04-03T09:47:06.429Z,2.80
2019-04-03T09:48:11.766Z,3.10
2019-04-03T09:49:13.732Z,2.70
2019-04-03T09:50:16.785Z,3.02
2019-04-03T09:51:21.875Z,2.75
2019-04-03T09:52:28.095Z,2.55
2019-04-03T09:53:28.582Z,2.25
2019-04-03T09:54:31.202Z,2.80
2019-04-03T09:55:36.981Z,2.80
2019-04-03T09:56:54.832Z,2.77
2019-04-03T09:57:43.301Z,2.35
2019-04-03T09:58:46.209Z,2.35
2019-04-03T09:59:49.041Z,2.98
2019-04-03T10:00:51.852Z,2.52
2019-04-03T10:01:54.612Z,2.55
2019-04-03T10:02:57.505Z,2.83
2019-04-03T10:04:00.454Z,2.35
2019-04-03T10:05:04.438Z,2.75
2019-04-03T10:06:06.966Z,3.25
2019-04-03T10:07:09.713Z,2.55
2019-04-03T10:08:12.502Z,3.00
2019-04-03T10:09:15.229Z,2.67
2019-04-03T10:10:18.427Z,3.30
2019-04-03T10:11:21.418Z,3.37
2019-04-03T10:12:24.085Z,2.12
2019-04-03T10:13:26.869Z,2.90
2019-04-03T10:14:29.680Z,2.72
2019-04-03T10:15:32.474Z,2.60
2019-04-03T10:16:35.866Z,2.50
2019-04-03T10:17:39.329Z,2.50
2019-04-03T10:18:42.983Z,2.92
2019-04-03T10:19:46.374Z,2.87
2019-04-03T10:20:49.733Z,2.40
2019-04-03T10:21:53.528Z,3.15
2019-04-03T10:22:57.043Z,2.77
2019-04-03T10:24:00.482Z,2.47
2019-04-03T10:25:05.487Z,2.55
2019-04-03T10:26:09.618Z,3.02
2019-04-03T10:27:12.593Z,3.20
2019-04-03T10:28:16.578Z,3.42
2019-04-03T10:29:21.042Z,3.65
2019-04-03T10:30:23.890Z,5.15
2019-04-03T10:31:26.578Z,4.97
2019-04-03T10:32:29.211Z,5.33
2019-04-03T10:33:33.611Z,5.60
2019-04-03T10:34:36.273Z,6.50
2019-04-03T10:35:39.876Z,6.60
2019-04-03T10:36:44.282Z,6.87
2019-04-03T10:37:47.132Z,6.40
2019-04-03T10:38:50.156Z,7.67
2019-04-03T10:39:53.540Z,7.62
2019-04-03T10:40:57.141Z,6.80
2019-04-03T10:42:01.161Z,6.95
2019-04-03T10:43:05.730Z,6.47
2019-04-03T10:44:09.725Z,5.75
2019-04-03T10:45:13.643Z,7.03
2019-04-03T10:46:16.486Z,7.05
2019-04-03T10:47:24.722Z,6.45
2019-04-03T10:48:28.188Z,7.03
2019-04-03T10:49:32.424Z,6.25
2019-04-03T10:50:36.388Z,6.15
2019-04-03T10:51:41.547Z,7.37
2019-04-03T10:52:47.682Z,7.70
2019-04-03T10:53:50.880Z,7.70
2019-04-03T10:54:54.297Z,8.40
2019-04-03T10:55:59.655Z,7.47
2019-04-03T10:57:03.506Z,6.20
2019-04-03T10:58:07.244Z,8.78
2019-04-03T10:59:13.570Z,7.00
2019-04-03T11:00:15.776Z,9.30
2019-04-03T11:01:19.004Z,8.90
2019-04-03T11:02:21.785Z,7.30
2019-04-03T11:03:26.361Z,8.73
2019-04-03T11:04:31.264Z,7.58
2019-04-03T11:05:34.187Z,9.08
2019-04-03T11:06:37.822Z,7.92
2019-04-03T11:07:40.664Z,7.40
2019-04-03T11:08:45.215Z,8.10
2019-04-03T11:09:48.418Z,8.58
2019-04-03T11:10:51.121Z,8.28
2019-04-03T11:11:54.265Z,7.42
2019-04-03T11:12:57.042Z,7.78
2019-04-03T11:14:03.010Z,7.90
2019-04-03T11:15:10.530Z,7.60
2019-04-03T11:16:15.065Z,6.80
2019-04-03T11:17:18.892Z,5.83
2019-04-03T11:18:21.921Z,6.55
2019-04-03T11:19:25.645Z,6.97
2019-04-03T11:20:28.681Z,6.12
2019-04-03T11:21:31.219Z,6.03
2019-04-03T11:22:40.448Z,6.50
2019-04-03T11:23:44.045Z,6.28
2019-04-03T11:24:43.315Z,6.25
2019-04-03T11:25:47.447Z,6.67
2019-04-03T11:26:51.777Z,5.60
2019-04-03T11:27:55.494Z,6.33
2019-04-03T11:28:58.433Z,6.75
2019-04-03T11:30:01.947Z,6.25
2019-04-03T11:31:05.071Z,5.97
2019-04-03T11:32:09.936Z,6.70
2019-04-03T11:33:14.118Z,6.15
2019-04-03T11:34:18.606Z,5.90
2019-04-03T11:35:22.484Z,6.50
2019-04-03T11:36:29.437Z,5.80
2019-04-03T11:37:32.159Z,5.60
2019-04-03T11:38:34.891Z,6.17
2019-04-03T11:39:37.935Z,6.58
2019-04-03T11:40:40.892Z,6.58
2019-04-03T11:41:43.546Z,6.53
2019-04-03T11:42:46.692Z,6.05
2019-04-03T11:43:49.875Z,6.00
2019-04-03T11:44:52.572Z,6.12
2019-04-03T11:45:55.520Z,6.37
2019-04-03T11:46:58.160Z,6.28
2019-04-03T11:48:00.688Z,6.25
2019-04-03T11:49:03.385Z,5.80
2019-04-03T11:50:07.111Z,6.17
2019-04-03T11:51:09.724Z,6.28
2019-04-03T11:52:12.364Z,6.40
2019-04-03T11:53:14.916Z,6.40
2019-04-03T11:54:17.434Z,6.72
2019-04-03T11:55:20.006Z,6.28
2019-04-03T11:56:22.786Z,5.67
2019-04-03T11:57:26.894Z,6.35
2019-04-03T11:58:30.086Z,6.72
2019-04-03T11:59:32.719Z,6.47
2019-04-03T12:00:40.912Z,6.47
2019-04-03T12:01:43.764Z,6.28
2019-04-03T12:02:46.515Z,6.72
2019-04-03T12:03:51.119Z,6.67
2019-04-03T12:04:54.432Z,6.65
2019-04-03T12:05:57.322Z,6.28
2019-04-03T12:06:59.934Z,5.80
2019-04-03T12:08:02.801Z,6.97
2019-04-03T12:09:07.230Z,6.40
2019-04-03T12:10:10.389Z,6.42
2019-04-03T12:11:13.020Z,6.00
2019-04-03T12:12:15.752Z,6.42
2019-04-03T12:13:21.031Z,7.72
2019-04-03T12:14:23.193Z,6.60
2019-04-03T12:15:26.061Z,7.12
2019-04-03T12:16:29.317Z,6.92
2019-04-03T12:17:33.638Z,7.30
2019-04-03T12:18:36.272Z,7.42
2019-04-03T12:19:38.999Z,7.42
2019-04-03T12:20:44.774Z,7.40
2019-04-03T12:21:46.771Z,6.12
2019-04-03T12:22:53.538Z,7.50
2019-04-03T12:23:57.763Z,7.53
2019-04-03T12:25:00.655Z,6.97
2019-04-03T12:26:04.045Z,6.42
2019-04-03T12:27:06.580Z,7.25
2019-04-03T12:28:09.312Z,6.87
2019-04-03T12:29:12.196Z,6.95
2019-04-03T12:30:16.700Z,8.08
2019-04-03T12:31:19.327Z,7.53
2019-04-03T12:32:22.013Z,7.70
2019-04-03T12:33:25.837Z,7.20
2019-04-03T12:34:28.470Z,7.58
2019-04-03T12:35:31.287Z,7.95
2019-04-03T12:36:33.909Z,7.90
2019-04-03T12:37:38.124Z,8.13
2019-04-03T12:38:40.900Z,7.20
2019-04-03T12:39:43.385Z,7.30
2019-04-03T12:40:45.990Z,7.78
2019-04-03T12:41:48.550Z,7.50
2019-04-03T12:42:51.375Z,6.65
2019-04-03T12:43:53.917Z,7.05
2019-04-03T12:44:56.459Z,6.30
2019-04-03T12:46:02.382Z,6.97
2019-04-03T12:47:05.630Z,6.40
2019-04-03T12:48:09.141Z,6.97
2019-04-03T12:49:11.896Z,7.80
2019-04-03T12:50:14.953Z,6.83
2019-04-03T12:51:19.788Z,6.95
2019-04-03T12:52:22.059Z,6.42
2019-04-03T12:53:24.895Z,7.08
2019-04-03T12:54:27.928Z,6.00
2019-04-03T12:55:30.620Z,7.62
2019-04-03T12:56:33.796Z,6.00
2019-04-03T12:57:38.704Z,7.12
2019-04-03T12:58:41.486Z,6.85
2019-04-03T12:59:46.571Z,6.50
2019-04-03T13:00:49.107Z,5.53
2019-04-03T13:01:51.645Z,6.65
2019-04-03T13:02:55.413Z,6.05
2019-04-03T13:03:58.271Z,6.28
2019-04-03T13:05:01.562Z,6.20
2019-04-03T13:06:09.771Z,5.60
2019-04-03T13:07:14.147Z,6.08
2019-04-03T13:08:19.592Z,5.70
2019-04-03T13:09:21.223Z,5.58
2019-04-03T13:10:24.554Z,6.20
2019-04-03T13:11:28.706Z,5.62
2019-04-03T13:12:31.499Z,5.92
2019-04-03T13:13:34.240Z,5.37
2019-04-03T13:14:37.034Z,5.78
2019-04-03T13:15:40.243Z,4.90
2019-04-03T13:16:44.120Z,5.22
2019-04-03T13:17:47.576Z,5.58
2019-04-03T13:18:50.576Z,5.78
2019-04-03T13:19:54.171Z,4.85
2019-04-03T13:20:56.981Z,5.22
2019-04-03T13:21:59.751Z,5.00
2019-04-03T13:23:02.338Z,5.28
2019-04-03T13:24:05.319Z,5.30
2019-04-03T13:25:09.159Z,4.42
2019-04-03T13:26:12.045Z,4.75
2019-04-03T13:27:14.840Z,5.12
2019-04-03T13:28:17.404Z,5.17
2019-04-03T13:29:21.864Z,5.30
2019-04-03T13:30:24.687Z,5.37
2019-04-03T13:31:27.490Z,4.80
2019-04-03T13:32:30.464Z,5.20
2019-04-03T13:33:33.432Z,4.55
2019-04-03T13:34:36.440Z,4.35
2019-04-03T13:35:39.777Z,4.78
2019-04-03T13:36:44.678Z,4.28
2019-04-03T13:37:47.562Z,4.12
2019-04-03T13:38:51.693Z,4.05
2019-04-03T13:39:54.451Z,4.05
2019-04-03T13:40:57.277Z,3.87
2019-04-03T13:41:59.975Z,4.47
2019-04-03T13:43:02.913Z,4.50
2019-04-03T13:44:05.636Z,4.10
2019-04-03T13:45:09.337Z,4.80
2019-04-03T13:46:12.269Z,4.78
2019-04-03T13:47:15.234Z,4.85
2019-04-03T13:48:17.766Z,4.90
2019-04-03T13:49:20.496Z,4.85
2019-04-03T13:50:23.567Z,5.08
2019-04-03T13:51:27.439Z,4.20
2019-04-03T13:52:39.992Z,4.60
2019-04-03T13:53:35.148Z,4.70
2019-04-03T13:54:37.907Z,3.90
2019-04-03T13:55:40.839Z,4.62
2019-04-03T13:56:43.976Z,3.95
2019-04-03T13:57:49.418Z,4.62
2019-04-03T13:58:53.944Z,4.10
2019-04-03T14:00:01.078Z,3.60
2019-04-03T14:01:02.855Z,4.20
2019-04-03T14:02:05.417Z,4.08
2019-04-03T14:03:08.280Z,3.90
2019-04-03T14:04:11.029Z,4.05